Terminal Aerodrome Forecast
Issued by NWS

Home | Current Version | Previous Version | Text Only | Print | Product List | Glossary On
Versions: 1 2 3 4 5 6 7 8 9 10 11 12 13 14
000
FTUS44 KLZK 291100
TAFLIT
TAF
KLIT 291140Z 2912/3012 23013G22KT P6SM BKN120 WS020/26040KT
     FM291700 34010G18KT P6SM SCT040 BKN250
     FM292300 36006KT P6SM BKN250
     FM300300 01003KT P6SM SCT250=

USA.gov is the U.S. government's official web portal to all federal, state and local government web resources and services.